sensor_id;sensor_type;location;lat;lon;timestamp;pressure;altitude;pressure_sealevel;temperature;humidity
13954;BME280;7049;49.444;8.522;2023-01-28T00:04:26;79622.25;;;-3.47;97.43
13954;BME280;7049;49.444;8.522;2023-01-28T00:09:29;79630.63;;;-3.47;96.92
13954;BME280;7049;49.444;8.522;2023-01-28T00:14:30;79626.44;;;-3.47;97.23
13954;BME280;7049;49.444;8.522;2023-01-28T00:19:32;79618.06;;;-3.47;97.48
13954;BME280;7049;49.444;8.522;2023-01-28T00:24:35;79615.97;;;-3.47;97.68
13954;BME280;7049;49.444;8.522;2023-01-28T00:29:36;79618.06;;;-3.47;98.18
13954;BME280;7049;49.444;8.522;2023-01-28T00:34:37;79613.88;;;-3.47;98.03
13954;BME280;7049;49.444;8.522;2023-01-28T00:39:40;79613.88;;;-3.47;98.01
13954;BME280;7049;49.444;8.522;2023-01-28T00:44:42;79609.69;;;-3.47;98.59
13954;BME280;7049;49.444;8.522;2023-01-28T00:49:43;79609.69;;;-3.47;98.41
13954;BME280;7049;49.444;8.522;2023-01-28T00:54:46;79607.59;;;-3.47;98.67
13954;BME280;7049;49.444;8.522;2023-01-28T00:59:47;79611.78;;;-3.47;99.17
13954;BME280;7049;49.444;8.522;2023-01-28T01:04:49;79615.97;;;-3.47;98.95
13954;BME280;7049;49.444;8.522;2023-01-28T01:10:00;79618.06;;;-3.47;99.53
13954;BME280;7049;49.444;8.522;2023-01-28T01:15:02;79618.06;;;-3.47;99.45
13954;BME280;7049;49.444;8.522;2023-01-28T01:20:05;79620.16;;;-3.47;99.63
13954;BME280;7049;49.444;8.522;2023-01-28T01:25:09;79628.53;;;-3.47;99.49
13954;BME280;7049;49.444;8.522;2023-01-28T01:30:12;79630.63;;;-3.47;99.54
13954;BME280;7049;49.444;8.522;2023-01-28T01:35:13;79628.53;;;-3.47;99.92
13954;BME280;7049;49.444;8.522;2023-01-28T01:40:16;79628.53;;;-3.47;99.92
13954;BME280;7049;49.444;8.522;2023-01-28T01:45:18;79622.25;;;-3.47;99.83
13954;BME280;7049;49.444;8.522;2023-01-28T01:50:24;79626.44;;;-3.47;99.68
13954;BME280;7049;49.444;8.522;2023-01-28T01:55:30;79626.44;;;-3.47;99.90
13954;BME280;7049;49.444;8.522;2023-01-28T02:00:33;79632.72;;;-3.47;99.49
13954;BME280;7049;49.444;8.522;2023-01-28T02:05:36;79632.72;;;-3.47;99.36
13954;BME280;7049;49.444;8.522;2023-01-28T02:10:39;79630.63;;;-3.47;99.36
13954;BME280;7049;49.444;8.522;2023-01-28T02:15:41;79628.53;;;-3.47;99.61
13954;BME280;7049;49.444;8.522;2023-01-28T02:21:07;79630.63;;;-3.47;99.17
13954;BME280;7049;49.444;8.522;2023-01-28T02:26:46;79634.81;;;-3.47;98.93
13954;BME280;7049;49.444;8.522;2023-01-28T02:31:53;79634.81;;;-3.47;98.80
13954;BME280;7049;49.444;8.522;2023-01-28T02:36:59;79634.81;;;-3.47;98.76
13954;BME280;7049;49.444;8.522;2023-01-28T02:42:06;79636.91;;;-3.47;98.43
13954;BME280;7049;49.444;8.522;2023-01-28T02:47:12;79634.81;;;-3.47;98.52
13954;BME280;7049;49.444;8.522;2023-01-28T02:52:41;79643.19;;;-3.47;98.11
13954;BME280;7049;49.444;8.522;2023-01-28T02:58:09;79643.19;;;-3.47;97.97
13954;BME280;7049;49.444;8.522;2023-01-28T03:03:16;79647.38;;;-3.47;98.49
13954;BME280;7049;49.444;8.522;2023-01-28T03:08:18;79643.19;;;-3.47;98.22
13954;BME280;7049;49.444;8.522;2023-01-28T03:13:37;79647.38;;;-3.47;97.81
13954;BME280;7049;49.444;8.522;2023-01-28T03:18:59;79664.13;;;-3.47;97.73
13954;BME280;7049;49.444;8.522;2023-01-28T03:24:20;79664.13;;;-3.47;97.77
13954;BME280;7049;49.444;8.522;2023-01-28T03:29:42;79657.84;;;-3.47;98.04
13954;BME280;7049;49.444;8.522;2023-01-28T03:35:05;79666.22;;;-3.47;97.91
13954;BME280;7049;49.444;8.522;2023-01-28T03:40:26;79666.22;;;-3.47;97.92
13954;BME280;7049;49.444;8.522;2023-01-28T03:45:28;79670.41;;;-3.47;97.72
13954;BME280;7049;49.444;8.522;2023-01-28T03:50:31;79680.88;;;-3.47;97.89
13954;BME280;7049;49.444;8.522;2023-01-28T03:55:32;79687.16;;;-3.47;97.73
13954;BME280;7049;49.444;8.522;2023-01-28T04:00:34;79682.97;;;-3.47;98.14
13954;BME280;7049;49.444;8.522;2023-01-28T04:05:38;79693.44;;;-3.47;97.75
13954;BME280;7049;49.444;8.522;2023-01-28T04:10:40;79693.44;;;-3.47;97.72
13954;BME280;7049;49.444;8.522;2023-01-28T04:15:43;79691.34;;;-3.47;97.73
13954;BME280;7049;49.444;8.522;2023-01-28T04:20:47;79689.25;;;-3.47;97.31
13954;BME280;7049;49.444;8.522;2023-01-28T04:25:49;79693.44;;;-3.47;97.59
13954;BME280;7049;49.444;8.522;2023-01-28T04:30:51;79695.53;;;-3.47;97.53
13954;BME280;7049;49.444;8.522;2023-01-28T04:35:54;79693.44;;;-3.47;97.41
13954;BME280;7049;49.444;8.522;2023-01-28T04:40:55;79697.63;;;-3.47;97.31
13954;BME280;7049;49.444;8.522;2023-01-28T04:45:57;79701.81;;;-3.47;97.34
13954;BME280;7049;49.444;8.522;2023-01-28T04:51:00;79706.00;;;-3.47;97.47
13954;BME280;7049;49.444;8.522;2023-01-28T04:56:01;79710.19;;;-3.47;97.27
13954;BME280;7049;49.444;8.522;2023-01-28T05:01:03;79714.38;;;-3.47;97.21
13954;BME280;7049;49.444;8.522;2023-01-28T05:06:06;79718.56;;;-3.47;97.53
13954;BME280;7049;49.444;8.522;2023-01-28T05:11:08;79718.56;;;-3.47;97.58
13954;BME280;7049;49.444;8.522;2023-01-28T05:16:09;79722.75;;;-3.47;97.40
13954;BME280;7049;49.444;8.522;2023-01-28T05:21:12;79724.84;;;-3.47;97.20
13954;BME280;7049;49.444;8.522;2023-01-28T05:26:13;79724.84;;;-3.47;97.33
13954;BME280;7049;49.444;8.522;2023-01-28T05:31:15;79731.13;;;-3.47;96.90
13954;BME280;7049;49.444;8.522;2023-01-28T05:36:17;79733.22;;;-3.47;97.18
13954;BME280;7049;49.444;8.522;2023-01-28T05:41:19;79731.13;;;-3.47;96.90
13954;BME280;7049;49.444;8.522;2023-01-28T05:46:20;79741.59;;;-3.47;96.76
13954;BME280;7049;49.444;8.522;2023-01-28T05:51:25;79743.69;;;-3.47;96.59
13954;BME280;7049;49.444;8.522;2023-01-28T06:02:34;79756.25;;;-3.47;96.04
13954;BME280;7049;49.444;8.522;2023-01-28T06:07:37;79762.53;;;-3.47;95.73
13954;BME280;7049;49.444;8.522;2023-01-28T06:12:39;79764.63;;;-3.47;96.15
13954;BME280;7049;49.444;8.522;2023-01-28T06:17:40;79764.63;;;-3.47;96.01
13954;BME280;7049;49.444;8.522;2023-01-28T06:22:43;79766.72;;;-3.47;95.57
13954;BME280;7049;49.444;8.522;2023-01-28T06:27:45;79777.19;;;-3.47;95.60
13954;BME280;7049;49.444;8.522;2023-01-28T06:32:52;79779.28;;;-3.47;95.31
13954;BME280;7049;49.444;8.522;2023-01-28T06:37:55;79783.47;;;-3.47;95.75
13954;BME280;7049;49.444;8.522;2023-01-28T06:42:56;79793.94;;;-3.47;95.26
13954;BME280;7049;49.444;8.522;2023-01-28T06:47:58;79793.94;;;-3.47;95.49
13954;BME280;7049;49.444;8.522;2023-01-28T06:53:01;79806.50;;;-3.47;95.37
13954;BME280;7049;49.444;8.522;2023-01-28T06:58:02;79806.50;;;-3.47;95.38
13954;BME280;7049;49.444;8.522;2023-01-28T07:03:04;79804.41;;;-3.47;95.60
13954;BME280;7049;49.444;8.522;2023-01-28T07:08:07;79814.88;;;-3.47;95.65
13954;BME280;7049;49.444;8.522;2023-01-28T07:13:09;79816.97;;;-3.47;95.80
13954;BME280;7049;49.444;8.522;2023-01-28T07:18:10;79812.78;;;-3.47;96.06
13954;BME280;7049;49.444;8.522;2023-01-28T07:23:13;79819.06;;;-3.47;95.80
13954;BME280;7049;49.444;8.522;2023-01-28T07:28:15;79814.88;;;-3.47;95.75
13954;BME280;7049;49.444;8.522;2023-01-28T07:33:20;79821.16;;;-3.47;95.92
13954;BME280;7049;49.444;8.522;2023-01-28T07:38:23;79821.16;;;-3.47;96.11
13954;BME280;7049;49.444;8.522;2023-01-28T07:43:24;79819.06;;;-3.47;95.95
13954;BME280;7049;49.444;8.522;2023-01-28T07:48:26;79816.97;;;-3.47;96.15
13954;BME280;7049;49.444;8.522;2023-01-28T07:53:29;79819.06;;;-3.47;96.35
13954;BME280;7049;49.444;8.522;2023-01-28T07:58:31;79821.16;;;-3.47;95.88
13954;BME280;7049;49.444;8.522;2023-01-28T08:03:33;79823.25;;;-3.47;95.98
13954;BME280;7049;49.444;8.522;2023-01-28T08:08:36;79829.53;;;-3.47;96.29
13954;BME280;7049;49.444;8.522;2023-01-28T08:13:38;79827.44;;;-3.47;95.82
13954;BME280;7049;49.444;8.522;2023-01-28T08:18:39;79827.44;;;-3.47;95.75
13954;BME280;7049;49.444;8.522;2023-01-28T08:23:42;79831.63;;;-3.47;95.19
13954;BME280;7049;49.444;8.522;2023-01-28T08:28:43;79833.72;;;-3.47;95.04
13954;BME280;7049;49.444;8.522;2023-01-28T08:33:45;79827.44;;;-3.47;94.66
13954;BME280;7049;49.444;8.522;2023-01-28T08:38:50;79825.34;;;-3.47;94.42
13954;BME280;7049;49.444;8.522;2023-01-28T08:43:53;79827.44;;;-3.47;94.47
13954;BME280;7049;49.444;8.522;2023-01-28T08:48:54;79827.44;;;-3.47;94.25
13954;BME280;7049;49.444;8.522;2023-01-28T08:53:57;79827.44;;;-3.47;94.23
13954;BME280;7049;49.444;8.522;2023-01-28T08:58:59;79825.34;;;-3.47;93.97
13954;BME280;7049;49.444;8.522;2023-01-28T09:04:01;79827.44;;;-3.47;94.00
13954;BME280;7049;49.444;8.522;2023-01-28T09:09:04;79823.25;;;-3.47;93.96
13954;BME280;7049;49.444;8.522;2023-01-28T09:14:05;79821.16;;;-3.47;94.07
13954;BME280;7049;49.444;8.522;2023-01-28T09:19:07;79812.78;;;-3.47;94.02
13954;BME280;7049;49.444;8.522;2023-01-28T09:24:10;79812.78;;;-3.47;93.53
13954;BME280;7049;49.444;8.522;2023-01-28T09:29:12;79812.78;;;-3.47;93.84
13954;BME280;7049;49.444;8.522;2023-01-28T09:34:13;79810.69;;;-3.47;93.52
13954;BME280;7049;49.444;8.522;2023-01-28T09:39:16;79802.31;;;-3.47;93.23
13954;BME280;7049;49.444;8.522;2023-01-28T09:44:31;79798.13;;;-3.47;93.43
13954;BME280;7049;49.444;8.522;2023-01-28T09:49:39;79802.31;;;-3.47;92.74
13954;BME280;7049;49.444;8.522;2023-01-28T09:54:48;79789.75;;;-3.47;92.73
13954;BME280;7049;49.444;8.522;2023-01-28T09:59:50;79789.75;;;-3.47;92.10
13954;BME280;7049;49.444;8.522;2023-01-28T10:04:57;79777.19;;;-3.47;92.17
13954;BME280;7049;49.444;8.522;2023-01-28T10:10:10;79779.28;;;-3.47;92.01
13954;BME280;7049;49.444;8.522;2023-01-28T10:20:49;79768.81;;;-3.47;91.11
13954;BME280;7049;49.444;8.522;2023-01-28T10:25:58;79754.16;;;-3.47;90.78
13954;BME280;7049;49.444;8.522;2023-01-28T10:31:01;79749.97;;;-3.47;90.76
13954;BME280;7049;49.444;8.522;2023-01-28T10:36:03;79743.69;;;-3.47;90.25
13954;BME280;7049;49.444;8.522;2023-01-28T10:41:10;79743.69;;;-3.47;89.74
13954;BME280;7049;49.444;8.522;2023-01-28T10:46:15;79735.31;;;-3.47;88.79
13954;BME280;7049;49.444;8.522;2023-01-28T10:51:29;79737.41;;;-3.47;88.88
13954;BME280;7049;49.444;8.522;2023-01-28T10:56:33;79739.50;;;-3.47;88.92
13954;BME280;7049;49.444;8.522;2023-01-28T11:01:41;79743.69;;;-3.47;88.36
13954;BME280;7049;49.444;8.522;2023-01-28T11:06:52;79739.50;;;-3.47;87.62
13954;BME280;7049;49.444;8.522;2023-01-28T11:11:55;79752.06;;;-3.47;87.38
13954;BME280;7049;49.444;8.522;2023-01-28T11:16:57;79745.78;;;-3.47;87.33
13954;BME280;7049;49.444;8.522;2023-01-28T11:21:58;79741.59;;;-3.47;87.08
13954;BME280;7049;49.444;8.522;2023-01-28T11:27:11;79745.78;;;-3.47;86.68
13954;BME280;7049;49.444;8.522;2023-01-28T11:32:17;79749.97;;;-3.47;86.78
13954;BME280;7049;49.444;8.522;2023-01-28T11:37:20;79743.69;;;-3.47;86.99
13954;BME280;7049;49.444;8.522;2023-01-28T11:42:24;79747.88;;;-3.47;86.76
13954;BME280;7049;49.444;8.522;2023-01-28T11:47:36;79741.59;;;-3.47;86.35
13954;BME280;7049;49.444;8.522;2023-01-28T11:52:50;79735.31;;;-3.47;85.92
13954;BME280;7049;49.444;8.522;2023-01-28T11:58:02;79739.50;;;-3.47;85.67
13954;BME280;7049;49.444;8.522;2023-01-28T12:03:29;79735.31;;;-3.47;85.68
13954;BME280;7049;49.444;8.522;2023-01-28T12:08:39;79731.13;;;-3.47;85.00
13954;BME280;7049;49.444;8.522;2023-01-28T12:13:53;79733.22;;;-3.47;84.83
13954;BME280;7049;49.444;8.522;2023-01-28T12:24:49;79724.84;;;-3.47;83.28
13954;BME280;7049;49.444;8.522;2023-01-28T12:30:05;79726.94;;;-3.47;82.79
13954;BME280;7049;49.444;8.522;2023-01-28T12:35:31;79729.03;;;-3.47;82.21
13954;BME280;7049;49.444;8.522;2023-01-28T12:40:44;79726.94;;;-3.47;82.31
13954;BME280;7049;49.444;8.522;2023-01-28T12:45:51;79726.94;;;-3.47;82.53
13954;BME280;7049;49.444;8.522;2023-01-28T12:50:59;79731.13;;;-3.47;82.49
13954;BME280;7049;49.444;8.522;2023-01-28T12:56:07;79726.94;;;-3.47;81.58
13954;BME280;7049;49.444;8.522;2023-01-28T13:01:14;79731.13;;;-3.47;81.57
13954;BME280;7049;49.444;8.522;2023-01-28T13:06:23;79735.31;;;-3.47;81.86
13954;BME280;7049;49.444;8.522;2023-01-28T13:11:32;79735.31;;;-3.47;81.38
13954;BME280;7049;49.444;8.522;2023-01-28T13:16:36;79745.78;;;-3.47;80.99
13954;BME280;7049;49.444;8.522;2023-01-28T13:21:37;79743.69;;;-3.47;80.96
13954;BME280;7049;49.444;8.522;2023-01-28T13:26:42;79735.31;;;-3.47;80.33
13954;BME280;7049;49.444;8.522;2023-01-28T13:31:46;79743.69;;;-3.47;80.36
13954;BME280;7049;49.444;8.522;2023-01-28T13:36:48;79752.06;;;-3.47;80.40
13954;BME280;7049;49.444;8.522;2023-01-28T13:41:52;79762.53;;;-3.47;80.10
13954;BME280;7049;49.444;8.522;2023-01-28T13:46:58;79768.81;;;-3.47;79.79
13954;BME280;7049;49.444;8.522;2023-01-28T13:52:04;79781.38;;;-3.47;80.25
13954;BME280;7049;49.444;8.522;2023-01-28T13:57:52;79793.94;;;-3.47;80.20
13954;BME280;7049;49.444;8.522;2023-01-28T14:03:45;79802.31;;;-3.47;80.00
13954;BME280;7049;49.444;8.522;2023-01-28T14:14:33;79814.88;;;-3.47;77.82
13954;BME280;7049;49.444;8.522;2023-01-28T14:19:42;79819.06;;;-3.47;78.21
13954;BME280;7049;49.444;8.522;2023-01-28T14:24:45;79823.25;;;-3.47;77.91
13954;BME280;7049;49.444;8.522;2023-01-28T14:30:03;79840.00;;;-3.47;77.79
13954;BME280;7049;49.444;8.522;2023-01-28T14:35:15;79837.91;;;-3.47;78.18
13954;BME280;7049;49.444;8.522;2023-01-28T14:40:19;79840.00;;;-3.47;78.16
13954;BME280;7049;49.444;8.522;2023-01-28T14:45:31;79844.19;;;-3.47;79.04
13954;BME280;7049;49.444;8.522;2023-01-28T14:50:47;79850.47;;;-3.47;78.32
13954;BME280;7049;49.444;8.522;2023-01-28T14:55:57;79850.47;;;-3.47;78.83
13954;BME280;7049;49.444;8.522;2023-01-28T15:01:00;79860.94;;;-3.47;78.81
13954;BME280;7049;49.444;8.522;2023-01-28T15:06:05;79871.41;;;-3.47;79.03
13954;BME280;7049;49.444;8.522;2023-01-28T15:11:08;79879.78;;;-3.47;78.43
13954;BME280;7049;49.444;8.522;2023-01-28T15:16:17;79894.44;;;-3.47;77.99
13954;BME280;7049;49.444;8.522;2023-01-28T15:21:23;79894.44;;;-3.47;78.00
13954;BME280;7049;49.444;8.522;2023-01-28T15:26:26;79909.09;;;-3.47;77.83
13954;BME280;7049;49.444;8.522;2023-01-28T15:31:30;79907.00;;;-3.47;78.30
13954;BME280;7049;49.444;8.522;2023-01-28T15:36:33;79902.81;;;-3.47;78.10
13954;BME280;7049;49.444;8.522;2023-01-28T15:41:38;79900.72;;;-3.47;78.20
13954;BME280;7049;49.444;8.522;2023-01-28T15:46:41;79907.00;;;-3.47;78.71
13954;BME280;7049;49.444;8.522;2023-01-28T15:51:47;79904.91;;;-3.47;79.25
13954;BME280;7049;49.444;8.522;2023-01-28T15:56:50;79913.28;;;-3.47;79.19
13954;BME280;7049;49.444;8.522;2023-01-28T16:02:14;79919.56;;;-3.47;78.49
13954;BME280;7049;49.444;8.522;2023-01-28T16:07:19;79927.94;;;-3.47;79.05
13954;BME280;7049;49.444;8.522;2023-01-28T16:12:20;79940.50;;;-3.47;79.12
13954;BME280;7049;49.444;8.522;2023-01-28T16:17:24;79944.69;;;-3.47;78.97
13954;BME280;7049;49.444;8.522;2023-01-28T16:22:33;79946.78;;;-3.47;78.84
13954;BME280;7049;49.444;8.522;2023-01-28T16:27:35;79942.59;;;-3.47;78.46
13954;BME280;7049;49.444;8.522;2023-01-28T16:32:38;79959.34;;;-3.47;77.09
13954;BME280;7049;49.444;8.522;2023-01-28T16:37:43;79961.44;;;-3.47;77.53
13954;BME280;7049;49.444;8.522;2023-01-28T16:42:45;79976.09;;;-3.47;77.98
13954;BME280;7049;49.444;8.522;2023-01-28T16:47:48;79978.19;;;-3.47;77.32
13954;BME280;7049;49.444;8.522;2023-01-28T16:52:53;79982.38;;;-3.47;76.93
13954;BME280;7049;49.444;8.522;2023-01-28T16:57:56;79990.75;;;-3.47;76.50
13954;BME280;7049;49.444;8.522;2023-01-28T17:02:57;79999.13;;;-3.47;76.87
13954;BME280;7049;49.444;8.522;2023-01-28T17:08:00;79994.94;;;-3.47;76.82
13954;BME280;7049;49.444;8.522;2023-01-28T17:13:02;80007.50;;;-3.47;76.48
13954;BME280;7049;49.444;8.522;2023-01-28T17:18:04;80011.69;;;-3.47;76.08
13954;BME280;7049;49.444;8.522;2023-01-28T17:23:07;80009.59;;;-3.47;76.31
13954;BME280;7049;49.444;8.522;2023-01-28T17:28:12;80022.16;;;-3.47;76.37
13954;BME280;7049;49.444;8.522;2023-01-28T17:33:14;80024.25;;;-3.47;76.18
13954;BME280;7049;49.444;8.522;2023-01-28T17:38:17;80034.72;;;-3.47;75.67
13954;BME280;7049;49.444;8.522;2023-01-28T17:43:18;80041.00;;;-3.47;74.99
13954;BME280;7049;49.444;8.522;2023-01-28T17:48:20;80045.19;;;-3.47;74.30
13954;BME280;7049;49.444;8.522;2023-01-28T17:53:23;80049.38;;;-3.47;74.39
13954;BME280;7049;49.444;8.522;2023-01-28T17:58:25;80064.03;;;-3.47;73.92
13954;BME280;7049;49.444;8.522;2023-01-28T18:03:26;80068.22;;;-3.47;74.13
13954;BME280;7049;49.444;8.522;2023-01-28T18:08:29;80082.88;;;-3.47;73.93
13954;BME280;7049;49.444;8.522;2023-01-28T18:13:31;80084.97;;;-3.47;73.99
13954;BME280;7049;49.444;8.522;2023-01-28T18:18:35;80091.25;;;-3.47;73.26
13954;BME280;7049;49.444;8.522;2023-01-28T18:23:38;80095.44;;;-3.47;72.73
13954;BME280;7049;49.444;8.522;2023-01-28T18:28:41;80093.34;;;-3.47;73.23
13954;BME280;7049;49.444;8.522;2023-01-28T18:33:43;80097.53;;;-3.47;72.91
13954;BME280;7049;49.444;8.522;2023-01-28T18:38:52;80108.00;;;-3.47;73.33
13954;BME280;7049;49.444;8.522;2023-01-28T18:43:53;80112.19;;;-3.47;73.10
13954;BME280;7049;49.444;8.522;2023-01-28T18:48:55;80120.56;;;-3.47;72.73
13954;BME280;7049;49.444;8.522;2023-01-28T18:54:00;80112.19;;;-3.47;72.44
13954;BME280;7049;49.444;8.522;2023-01-28T18:59:06;80108.00;;;-3.47;71.86
13954;BME280;7049;49.444;8.522;2023-01-28T19:04:09;80116.38;;;-3.47;71.80
13954;BME280;7049;49.444;8.522;2023-01-28T19:09:16;80124.75;;;-3.47;71.96
13954;BME280;7049;49.444;8.522;2023-01-28T19:14:17;80135.22;;;-3.47;72.40
13954;BME280;7049;49.444;8.522;2023-01-28T19:19:20;80141.50;;;-3.47;72.44
13954;BME280;7049;49.444;8.522;2023-01-28T19:24:23;80156.16;;;-3.47;72.55
13954;BME280;7049;49.444;8.522;2023-01-28T19:29:26;80168.72;;;-3.47;72.08
13954;BME280;7049;49.444;8.522;2023-01-28T19:34:28;80164.53;;;-3.47;72.06
13954;BME280;7049;49.444;8.522;2023-01-28T19:45:06;80191.75;;;-3.47;72.18
13954;BME280;7049;49.444;8.522;2023-01-28T19:50:08;80195.94;;;-3.47;72.12
13954;BME280;7049;49.444;8.522;2023-01-28T19:55:10;80198.03;;;-3.47;71.82
13954;BME280;7049;49.444;8.522;2023-01-28T20:00:14;80202.22;;;-3.47;71.80
13954;BME280;7049;49.444;8.522;2023-01-28T20:05:15;80206.41;;;-3.47;71.31
13954;BME280;7049;49.444;8.522;2023-01-28T20:10:17;80212.69;;;-3.47;70.94
13954;BME280;7049;49.444;8.522;2023-01-28T20:15:20;80221.06;;;-3.47;70.51
13954;BME280;7049;49.444;8.522;2023-01-28T20:20:21;80225.25;;;-3.47;70.79
13954;BME280;7049;49.444;8.522;2023-01-28T20:25:23;80225.25;;;-3.47;70.63
13954;BME280;7049;49.444;8.522;2023-01-28T20:30:25;80221.06;;;-3.47;70.99
13954;BME280;7049;49.444;8.522;2023-01-28T20:35:27;80218.97;;;-3.47;70.90
13954;BME280;7049;49.444;8.522;2023-01-28T20:40:29;80229.44;;;-3.47;70.82
13954;BME280;7049;49.444;8.522;2023-01-28T20:45:32;80233.63;;;-3.47;70.88
13954;BME280;7049;49.444;8.522;2023-01-28T20:50:33;80231.53;;;-3.47;70.70
13954;BME280;7049;49.444;8.522;2023-01-28T20:55:35;80227.34;;;-3.47;71.30
13954;BME280;7049;49.444;8.522;2023-01-28T21:00:38;80237.81;;;-3.47;71.03
13954;BME280;7049;49.444;8.522;2023-01-28T21:05:39;80246.19;;;-3.47;71.15
13954;BME280;7049;49.444;8.522;2023-01-28T21:10:41;80248.28;;;-3.47;70.96
13954;BME280;7049;49.444;8.522;2023-01-28T21:15:52;80242.00;;;-3.47;70.68
13954;BME280;7049;49.444;8.522;2023-01-28T21:20:54;80252.47;;;-3.47;70.43
13954;BME280;7049;49.444;8.522;2023-01-28T21:25:59;80254.56;;;-3.47;70.83
13954;BME280;7049;49.444;8.522;2023-01-28T21:31:08;80250.38;;;-3.47;70.69
13954;BME280;7049;49.444;8.522;2023-01-28T21:36:12;80260.84;;;-3.47;71.07
13954;BME280;7049;49.444;8.522;2023-01-28T21:41:14;80258.75;;;-3.47;71.73
13954;BME280;7049;49.444;8.522;2023-01-28T21:46:17;80258.75;;;-3.47;71.30
13954;BME280;7049;49.444;8.522;2023-01-28T21:51:18;80262.94;;;-3.47;70.51
13954;BME280;7049;49.444;8.522;2023-01-28T21:56:35;80258.75;;;-3.47;70.59
13954;BME280;7049;49.444;8.522;2023-01-28T22:01:38;80256.66;;;-3.47;70.91
13954;BME280;7049;49.444;8.522;2023-01-28T22:06:40;80254.56;;;-3.47;70.76
13954;BME280;7049;49.444;8.522;2023-01-28T22:11:43;80246.19;;;-3.47;70.27
13954;BME280;7049;49.444;8.522;2023-01-28T22:16:46;80254.56;;;-3.47;68.36
13954;BME280;7049;49.444;8.522;2023-01-28T22:21:48;80256.66;;;-3.47;68.58
13954;BME280;7049;49.444;8.522;2023-01-28T22:26:50;80254.56;;;-3.47;69.36
13954;BME280;7049;49.444;8.522;2023-01-28T22:31:53;80254.56;;;-3.47;70.07
13954;BME280;7049;49.444;8.522;2023-01-28T22:36:55;80252.47;;;-3.47;70.23
13954;BME280;7049;49.444;8.522;2023-01-28T22:41:56;80256.66;;;-3.47;70.97
13954;BME280;7049;49.444;8.522;2023-01-28T22:46:59;80258.75;;;-3.47;71.46
13954;BME280;7049;49.444;8.522;2023-01-28T22:52:01;80258.75;;;-3.47;71.76
13954;BME280;7049;49.444;8.522;2023-01-28T22:57:02;80260.84;;;-3.47;71.73
13954;BME280;7049;49.444;8.522;2023-01-28T23:02:05;80252.47;;;-3.47;70.97
13954;BME280;7049;49.444;8.522;2023-01-28T23:07:07;80262.94;;;-3.47;68.83
13954;BME280;7049;49.444;8.522;2023-01-28T23:12:09;80271.31;;;-3.47;69.90
13954;BME280;7049;49.444;8.522;2023-01-28T23:17:12;80271.31;;;-3.47;70.81
13954;BME280;7049;49.444;8.522;2023-01-28T23:22:32;80271.31;;;-3.47;71.02
13954;BME280;7049;49.444;8.522;2023-01-28T23:27:53;80285.97;;;-3.47;70.65
13954;BME280;7049;49.444;8.522;2023-01-28T23:32:56;80283.88;;;-3.47;69.06
13954;BME280;7049;49.444;8.522;2023-01-28T23:37:58;80288.06;;;-3.47;70.28
13954;BME280;7049;49.444;8.522;2023-01-28T23:43:00;80288.06;;;-3.47;71.38
13954;BME280;7049;49.444;8.522;2023-01-28T23:48:02;80277.59;;;-3.47;71.99
13954;BME280;7049;49.444;8.522;2023-01-28T23:53:04;80277.59;;;-3.47;72.51
13954;BME280;7049;49.444;8.522;2023-01-28T23:58:12;80281.78;;;-3.47;72.76
